Información del aeropuerto LEBB

Información de pista
Pista 10 Longitud 6562 ft Anchura 148 ft
Elevación 116 ft Umbral 0 ft Rumbo 97
Pista 28 Longitud 6562 ft Anchura 148 ft
Elevación 129 ft Umbral 0 ft Rumbo 277
Pista 12 Longitud 8530 ft Anchura 148 ft
Elevación 119 ft Umbral 0 ft Rumbo 117
Pista 30 Longitud 8530 ft Anchura 148 ft
Elevación 128 ft Umbral 1509 ft Rumbo 297
Frecuencias del aeropuerto
Tipo APP Nombre APP Frecuencia 120.7 MHZ
Tipo ATIS Nombre ATIS Frecuencia 118.825 MHZ
Tipo GND Nombre GND Frecuencia 121.7 MHZ
Tipo TWR Nombre TWR Frecuencia 118.5 MHZ
Radioayudas del aeropuerto
Tipo VOR-DME Nombre Bilbao Frecuencia 115900 KHZ
Información meteorológica del aeropuerto y NOTAM
ADDS - METARS form results

(0207 UTC 23 January 2022)
Data provider http://aviationweather.gov/metar/data/
 
METAR text: LEBB 230200Z AUTO 08005KT 060V120 CAVOK M00/M01 Q1030
Conditions at: LEBB (BILBAO/SONDICA , ES) observed 0200 UTC 23 January 2022
Temperature: 0.0°C (32°F)
Dewpoint: -1.0°C (30°F) [RH = 93%]
Pressure (altimeter): 30.41 inches Hg (1030.0 mb)
Winds: from the E (80 degrees) at 6 MPH (5 knots; 2.6 m/s)
Visibility: 6 or more miles (10+ km)
Ceiling: ceiling and visibility are OK
Clouds: unknown
Weather: no significant weather observed at this time

METAR text: LEBB 230130Z AUTO 08004KT CAVOK M01/M01 Q1030
Conditions at: LEBB (BILBAO/SONDICA , ES) observed 0130 UTC 23 January 2022
Temperature: -1.0°C (30°F)
Dewpoint: -1.0°C (30°F) [RH = 100%]
Pressure (altimeter): 30.41 inches Hg (1030.0 mb)
Winds: from the E (80 degrees) at 5 MPH (4 knots; 2.1 m/s)
Visibility: 6 or more miles (10+ km)
Ceiling: ceiling and visibility are OK
Clouds: unknown
Weather: no significant weather observed at this time

Forecast for: LEBB (BILBAO/SONDICA , ES)
Text: TAF LEBB 222300Z 2300/2324 10004KT CAVOK TX12/2314Z TNM02/2306Z
Forecast period: 0000 UTC 23 January 2022 to 0000 UTC 24 January 2022
Forecast type: FROM: standard forecast or significant change
Winds: from the E (100 degrees) at 5 MPH (4 knots; 2.1 m/s)
Visibility: 6 or more miles (10+ km)
Ceiling: unknown
Clouds: missing
Weather: no significant weather forecast for this period